Time;durP1;ratioP1;P1;durP2;ratioP2;P2;SDS_P1;SDS_P2;PMS_P1;PMS_P2;Temp;Humidity;BMP_temperature;BMP_pressure;BME280_temperature;BME280_humidity;BME280_pressure;Samples;Min_cycle;Max_cycle;Signal;HPM_P1;HPM_P2
2023/12/03 00:00:53;;;;;;;1.30;1.10;;;21.60;66.80;;;;;;5020746;28;20899;-64
2023/12/03 00:03:20;;;;;;;1.20;1.10;;;21.60;66.80;;;;;;5024199;28;20480;-63
2023/12/03 00:05:47;;;;;;;1.50;1.40;;;21.60;66.80;;;;;;5022359;28;20558;-62
2023/12/03 00:08:14;;;;;;;1.20;1.10;;;21.60;66.90;;;;;;5023211;28;20469;-63
2023/12/03 00:10:42;;;;;;;1.40;1.00;;;21.60;66.80;;;;;;5019851;28;21382;-63
2023/12/03 00:13:10;;;;;;;1.20;1.07;;;21.60;66.90;;;;;;5021613;28;20462;-65
2023/12/03 00:15:37;;;;;;;1.40;1.30;;;21.60;66.80;;;;;;5020460;28;20455;-64
2023/12/03 00:18:03;;;;;;;1.20;1.00;;;21.60;66.80;;;;;;5019354;28;20466;-64
2023/12/03 00:20:30;;;;;;;1.80;1.57;;;21.60;67.00;;;;;;5022350;28;20552;-64
2023/12/03 00:22:57;;;;;;;1.27;1.13;;;21.60;67.00;;;;;;5020689;28;20485;-65
2023/12/03 00:25:24;;;;;;;1.17;1.07;;;21.60;66.80;;;;;;5022718;28;20464;-63
2023/12/03 00:27:52;;;;;;;1.60;1.43;;;21.60;66.90;;;;;;5021970;28;21525;-63
2023/12/03 00:30:20;;;;;;;2.10;1.60;;;21.60;66.90;;;;;;5021708;28;20950;-64
2023/12/03 00:32:47;;;;;;;1.52;1.25;;;21.60;66.80;;;;;;5022764;28;20462;-64
2023/12/03 00:35:14;;;;;;;1.50;1.33;;;21.60;66.80;;;;;;5025225;28;20222;-64
2023/12/03 00:37:41;;;;;;;1.37;1.27;;;21.60;67.00;;;;;;5022608;28;20244;-64
2023/12/03 00:40:09;;;;;;;2.00;1.60;;;21.60;67.00;;;;;;5022135;28;20469;-63
2023/12/03 00:42:35;;;;;;;1.67;1.40;;;21.60;66.80;;;;;;5024693;28;20518;-63
2023/12/03 00:45:02;;;;;;;1.67;1.40;;;21.60;66.90;;;;;;5024763;28;20919;-65
2023/12/03 00:47:30;;;;;;;1.83;1.60;;;21.60;66.90;;;;;;5025165;28;20469;-65
2023/12/03 00:49:57;;;;;;;1.50;1.23;;;21.50;66.80;;;;;;5022755;28;20459;-64
2023/12/03 00:52:24;;;;;;;2.13;1.23;;;21.60;67.70;;;;;;5023014;28;20466;-64
2023/12/03 00:54:50;;;;;;;4.90;1.70;;;21.60;66.80;;;;;;5024149;28;20834;-64
2023/12/03 00:57:17;;;;;;;1.20;1.10;;;21.60;67.00;;;;;;5023490;28;20469;-64
2023/12/03 00:59:44;;;;;;;2.13;1.30;;;21.60;66.70;;;;;;5024382;28;20839;-64
2023/12/03 01:02:10;;;;;;;1.60;1.30;;;21.60;66.80;;;;;;5025331;28;20531;-63
2023/12/03 01:04:38;;;;;;;1.23;1.13;;;21.60;66.80;;;;;;5024927;28;21152;-63
2023/12/03 01:07:05;;;;;;;1.63;1.20;;;21.60;66.80;;;;;;5024670;28;20458;-64
2023/12/03 01:09:32;;;;;;;1.40;1.30;;;21.60;66.80;;;;;;5022671;28;20467;-64
2023/12/03 01:11:59;;;;;;;1.43;1.27;;;21.50;66.70;;;;;;5025979;28;20465;-63
2023/12/03 01:14:25;;;;;;;1.77;1.67;;;21.60;66.70;;;;;;5025938;28;20464;-63
2023/12/03 01:16:52;;;;;;;1.30;1.00;;;21.50;66.80;;;;;;5025867;28;20466;-64
2023/12/03 01:19:19;;;;;;;1.30;1.20;;;21.60;66.80;;;;;;5029357;28;21021;-64
2023/12/03 01:21:47;;;;;;;1.43;1.20;;;21.50;66.80;;;;;;5026130;28;20458;-65
2023/12/03 01:24:13;;;;;;;1.50;1.40;;;21.50;66.70;;;;;;5027260;28;20834;-64
2023/12/03 01:26:40;;;;;;;1.30;1.10;;;21.60;66.80;;;;;;5029509;28;21367;-63
2023/12/03 01:29:07;;;;;;;2.17;1.97;;;21.50;66.70;;;;;;5024694;28;20477;-63
2023/12/03 01:31:34;;;;;;;1.40;1.20;;;21.50;66.60;;;;;;5030380;28;20461;-64
2023/12/03 01:34:00;;;;;;;4.47;1.70;;;21.50;66.60;;;;;;5026953;28;20951;-63
2023/12/03 01:36:27;;;;;;;1.40;1.30;;;21.50;67.50;;;;;;5026725;28;21014;-64
2023/12/03 01:38:55;;;;;;;1.70;1.40;;;21.50;66.50;;;;;;5023237;28;20457;-64
2023/12/03 01:41:22;;;;;;;1.80;1.30;;;21.50;66.60;;;;;;5032205;28;20812;-63
2023/12/03 01:43:49;;;;;;;1.13;1.03;;;21.50;67.30;;;;;;5027877;28;20477;-63
2023/12/03 01:46:16;;;;;;;1.60;1.50;;;21.50;66.60;;;;;;5031409;28;20797;-63
2023/12/03 01:48:44;;;;;;;1.50;1.33;;;21.50;66.70;;;;;;5024999;28;20458;-64
2023/12/03 01:51:11;;;;;;;1.50;1.37;;;21.50;66.60;;;;;;5029246;28;20466;-63
2023/12/03 01:53:39;;;;;;;1.77;1.43;;;21.50;66.60;;;;;;5030056;28;20462;-63
2023/12/03 01:56:09;;;;;;;1.50;1.40;;;21.50;66.50;;;;;;5034945;28;20465;-64
2023/12/03 01:58:36;;;;;;;1.20;1.03;;;21.50;66.60;;;;;;5030984;28;20459;-64
2023/12/03 02:01:03;;;;;;;1.40;1.10;;;21.50;66.60;;;;;;5026332;28;20446;-63
2023/12/03 02:03:30;;;;;;;1.40;1.20;;;21.50;66.50;;;;;;5022610;28;20473;-64
2023/12/03 02:06:04;;;;;;;1.67;1.37;;;21.50;66.60;;;;;;5031421;28;20473;-63
2023/12/03 02:08:30;;;;;;;1.70;1.60;;;21.50;66.60;;;;;;5030202;28;20519;-63
2023/12/03 02:10:58;;;;;;;1.97;1.47;;;21.50;66.60;;;;;;5024860;28;20464;-63
2023/12/03 02:13:28;;;;;;;1.40;1.30;;;21.50;66.50;;;;;;5026466;28;20473;-63
2023/12/03 02:15:55;;;;;;;1.27;1.17;;;21.50;66.40;;;;;;5030432;28;20909;-63
2023/12/03 02:18:22;;;;;;;1.83;1.73;;;21.50;66.50;;;;;;5029252;28;20470;-65
2023/12/03 02:20:48;;;;;;;2.10;1.83;;;21.50;66.50;;;;;;5026621;28;21196;-63
2023/12/03 02:23:16;;;;;;;1.50;1.40;;;21.50;66.40;;;;;;5029092;28;21124;-63
2023/12/03 02:25:43;;;;;;;1.50;1.27;;;21.50;66.50;;;;;;5025629;28;20461;-63
2023/12/03 02:28:10;;;;;;;1.80;1.60;;;21.50;66.60;;;;;;5023542;28;20466;-64
2023/12/03 02:30:37;;;;;;;1.30;1.20;;;21.50;66.60;;;;;;5022289;28;20465;-63
2023/12/03 02:33:05;;;;;;;2.00;1.80;;;21.50;66.50;;;;;;5022434;28;20468;-64
2023/12/03 02:35:31;;;;;;;2.00;1.77;;;21.50;66.50;;;;;;5017868;28;20469;-63
2023/12/03 02:37:58;;;;;;;1.40;1.30;;;21.50;66.40;;;;;;5021332;28;20468;-64
2023/12/03 02:40:27;;;;;;;1.60;1.50;;;21.50;66.60;;;;;;5022817;28;21108;-63
2023/12/03 02:42:53;;;;;;;1.37;1.27;;;21.50;66.50;;;;;;5015924;28;21220;-63
2023/12/03 02:45:20;;;;;;;1.50;1.40;;;21.50;66.50;;;;;;5021787;28;20458;-64
2023/12/03 02:47:47;;;;;;;1.60;1.40;;;21.50;66.50;;;;;;5023479;28;20454;-63
2023/12/03 02:50:13;;;;;;;1.60;1.50;;;21.50;66.50;;;;;;5021267;28;20458;-63
2023/12/03 02:52:41;;;;;;;1.33;1.23;;;21.50;66.50;;;;;;5021574;28;20897;-63
2023/12/03 02:55:09;;;;;;;1.97;1.80;;;21.50;66.50;;;;;;5019911;28;20489;-63
2023/12/03 02:57:37;;;;;;;1.33;1.20;;;21.50;66.40;;;;;;5020912;28;20501;-64
2023/12/03 03:00:06;;;;;;;1.33;1.23;;;21.50;66.50;;;;;;5017693;28;20459;-64
2023/12/03 03:02:33;;;;;;;1.43;1.30;;;21.50;66.50;;;;;;5022575;28;20863;-64
2023/12/03 03:05:00;;;;;;;1.33;1.23;;;21.50;66.40;;;;;;5021841;28;20505;-64
2023/12/03 03:07:27;;;;;;;1.47;1.37;;;21.50;66.50;;;;;;5020467;28;20464;-64
2023/12/03 03:09:54;;;;;;;1.63;1.40;;;21.50;66.50;;;;;;5018662;28;20928;-63
2023/12/03 03:12:20;;;;;;;1.73;1.47;;;21.50;66.70;;;;;;5019753;28;20455;-63
2023/12/03 03:14:48;;;;;;;1.40;1.10;;;21.50;66.50;;;;;;5022939;28;20466;-63
2023/12/03 03:17:15;;;;;;;1.47;1.37;;;21.50;66.60;;;;;;5020074;28;21361;-63
2023/12/03 03:19:43;;;;;;;1.57;1.47;;;21.50;66.60;;;;;;5021759;28;21025;-65
2023/12/03 03:22:12;;;;;;;1.50;1.40;;;21.50;66.60;;;;;;5020858;28;20472;-65
2023/12/03 03:24:38;;;;;;;1.50;1.33;;;21.50;66.50;;;;;;5021995;28;20258;-64
2023/12/03 03:27:05;;;;;;;1.40;1.13;;;21.50;66.50;;;;;;5019825;28;20464;-63
2023/12/03 03:29:32;;;;;;;1.30;1.20;;;21.50;66.50;;;;;;5019245;28;20962;-64
2023/12/03 03:32:01;;;;;;;1.73;1.33;;;21.50;66.60;;;;;;5020721;28;20454;-63
2023/12/03 03:34:28;;;;;;;1.67;1.57;;;21.50;66.40;;;;;;5021089;28;20469;-63
2023/12/03 03:36:54;;;;;;;1.93;1.40;;;21.50;66.50;;;;;;5023312;28;20469;-64
2023/12/03 03:39:21;;;;;;;1.30;1.20;;;21.50;66.50;;;;;;5021883;28;20481;-63
2023/12/03 03:41:48;;;;;;;1.60;1.40;;;21.50;66.60;;;;;;5022157;28;20497;-64
2023/12/03 03:44:14;;;;;;;1.53;1.27;;;21.50;66.30;;;;;;5020642;28;20493;-64
2023/12/03 03:46:41;;;;;;;1.97;1.57;;;21.50;66.50;;;;;;5014294;28;20466;-64
2023/12/03 03:49:09;;;;;;;2.03;1.77;;;21.50;66.50;;;;;;5022650;28;20466;-64
2023/12/03 03:51:36;;;;;;;1.40;1.30;;;21.50;66.50;;;;;;5023793;28;20843;-64
2023/12/03 03:54:02;;;;;;;1.53;1.20;;;21.50;66.50;;;;;;5021355;28;20473;-64
2023/12/03 03:56:29;;;;;;;1.67;1.30;;;21.50;66.40;;;;;;5016401;28;20474;-64
2023/12/03 03:58:56;;;;;;;1.60;1.50;;;21.40;66.40;;;;;;5021872;28;20462;-64
2023/12/03 04:01:23;;;;;;;1.57;1.47;;;21.50;66.40;;;;;;5024200;28;20464;-63
2023/12/03 04:03:50;;;;;;;1.50;1.30;;;21.50;66.40;;;;;;5021107;28;20492;-65
2023/12/03 04:06:18;;;;;;;1.60;1.50;;;21.50;66.40;;;;;;5022055;28;20472;-63
2023/12/03 04:08:45;;;;;;;1.60;1.20;;;21.50;66.40;;;;;;5024223;28;20512;-64
2023/12/03 04:11:12;;;;;;;1.70;1.60;;;21.50;67.10;;;;;;5027362;28;20560;-64
2023/12/03 04:13:39;;;;;;;1.90;1.70;;;21.50;66.40;;;;;;5028901;28;20962;-63
2023/12/03 04:16:07;;;;;;;1.63;1.53;;;21.50;66.40;;;;;;5013955;28;20461;-63
2023/12/03 04:18:34;;;;;;;1.63;1.53;;;21.50;66.40;;;;;;5023210;28;20466;-64
2023/12/03 04:21:00;;;;;;;1.40;1.30;;;21.50;66.30;;;;;;5023657;28;20515;-63
2023/12/03 04:23:28;;;;;;;1.93;1.30;;;21.50;66.20;;;;;;5026008;28;20474;-64
2023/12/03 04:25:55;;;;;;;1.50;1.30;;;21.50;66.30;;;;;;5031395;28;21198;-64
2023/12/03 04:28:22;;;;;;;1.60;1.50;;;21.40;66.00;;;;;;5018665;28;20461;-66
2023/12/03 04:30:48;;;;;;;1.42;1.33;;;21.50;66.20;;;;;;5026254;28;20972;-64
2023/12/03 04:33:15;;;;;;;1.90;1.60;;;21.50;66.20;;;;;;5031646;28;20201;-64
2023/12/03 04:35:42;;;;;;;1.70;1.60;;;21.50;66.10;;;;;;5027700;28;20830;-65
2023/12/03 04:38:09;;;;;;;1.70;1.60;;;21.50;66.30;;;;;;5023448;28;21028;-65
2023/12/03 04:40:37;;;;;;;2.53;1.70;;;21.50;66.10;;;;;;5025562;28;20458;-64
2023/12/03 04:43:04;;;;;;;1.40;1.23;;;21.40;66.10;;;;;;5023895;28;20954;-64
2023/12/03 04:45:30;;;;;;;1.57;1.43;;;21.40;65.90;;;;;;5025180;28;20482;-64
2023/12/03 04:47:57;;;;;;;1.53;1.43;;;21.50;66.00;;;;;;5026795;28;20462;-64
2023/12/03 04:50:24;;;;;;;1.30;1.20;;;21.50;66.10;;;;;;5022384;28;20464;-64
2023/12/03 04:52:50;;;;;;;1.60;1.47;;;21.50;66.40;;;;;;5025154;28;21035;-63
2023/12/03 04:55:17;;;;;;;1.43;1.30;;;21.40;66.00;;;;;;5025632;28;20466;-65
2023/12/03 04:57:45;;;;;;;2.07;1.80;;;21.50;66.10;;;;;;5023471;28;20442;-64
2023/12/03 05:00:13;;;;;;;1.90;1.67;;;21.50;65.90;;;;;;5019839;28;20520;-63
2023/12/03 05:02:40;;;;;;;1.90;1.80;;;21.40;65.80;;;;;;5019058;28;20480;-65
2023/12/03 05:05:07;;;;;;;1.90;1.67;;;21.40;65.80;;;;;;5022823;28;21104;-63
2023/12/03 05:07:34;;;;;;;1.83;1.73;;;21.50;66.10;;;;;;5023667;28;20992;-63
2023/12/03 05:10:00;;;;;;;1.87;1.60;;;21.40;66.90;;;;;;5021618;28;21501;-63
2023/12/03 05:12:27;;;;;;;1.40;1.30;;;21.50;66.00;;;;;;5022938;28;20466;-64
2023/12/03 05:14:55;;;;;;;1.80;1.70;;;21.50;66.10;;;;;;5024001;28;20466;-64
2023/12/03 05:17:22;;;;;;;1.43;1.33;;;21.50;66.00;;;;;;5022346;28;20470;-63
2023/12/03 05:19:49;;;;;;;1.97;1.87;;;21.40;65.90;;;;;;5019906;28;20842;-63
2023/12/03 05:22:15;;;;;;;2.73;2.43;;;21.50;65.90;;;;;;5021622;28;20457;-64
2023/12/03 05:24:42;;;;;;;1.53;1.43;;;21.40;65.80;;;;;;5023982;28;20482;-65
2023/12/03 05:27:09;;;;;;;2.00;1.67;;;21.50;65.90;;;;;;5024598;28;21147;-64
2023/12/03 05:29:35;;;;;;;1.70;1.60;;;21.50;66.00;;;;;;5022667;28;20461;-64
2023/12/03 05:32:04;;;;;;;2.00;1.60;;;21.40;65.90;;;;;;5024149;28;20462;-65
2023/12/03 05:34:31;;;;;;;1.87;1.50;;;21.40;65.70;;;;;;5025929;28;20473;-64
2023/12/03 05:36:58;;;;;;;1.90;1.80;;;21.40;65.80;;;;;;5016768;28;20470;-64
2023/12/03 05:39:24;;;;;;;2.00;1.80;;;21.50;66.20;;;;;;5018999;28;20454;-64
2023/12/03 05:41:51;;;;;;;1.67;1.58;;;21.40;65.70;;;;;;5021409;28;20468;-63
2023/12/03 05:44:18;;;;;;;2.37;1.93;;;21.50;65.80;;;;;;5023591;28;20225;-64
2023/12/03 05:46:44;;;;;;;1.30;1.10;;;21.40;65.70;;;;;;5022022;28;20457;-64
2023/12/03 05:49:13;;;;;;;1.67;1.57;;;21.40;65.60;;;;;;5025764;28;20547;-63
2023/12/03 05:51:44;;;;;;;1.77;1.63;;;21.40;65.80;;;;;;5026338;28;20914;-64
2023/12/03 05:54:10;;;;;;;1.83;1.73;;;21.40;65.70;;;;;;5023598;28;20948;-63
2023/12/03 05:56:37;;;;;;;1.33;1.17;;;21.40;65.60;;;;;;5023011;28;20470;-64
2023/12/03 05:59:04;;;;;;;1.57;1.40;;;21.40;65.70;;;;;;5023538;28;20489;-64
2023/12/03 06:01:31;;;;;;;2.17;1.90;;;21.40;65.60;;;;;;5024375;28;20833;-63
2023/12/03 06:03:57;;;;;;;1.40;1.30;;;21.40;65.70;;;;;;5025439;28;20497;-64
2023/12/03 06:06:25;;;;;;;1.67;1.40;;;21.40;65.60;;;;;;5025020;28;20461;-65
2023/12/03 06:08:52;;;;;;;2.00;1.80;;;21.40;66.20;;;;;;5023513;28;20473;-64
2023/12/03 06:11:19;;;;;;;1.53;1.43;;;21.40;66.10;;;;;;5025731;28;21404;-63
2023/12/03 06:13:46;;;;;;;1.83;1.73;;;21.40;66.00;;;;;;5028435;28;20470;-63
2023/12/03 06:16:13;;;;;;;1.57;1.47;;;21.40;65.80;;;;;;5020948;28;20473;-64
2023/12/03 06:18:40;;;;;;;1.97;1.77;;;21.40;65.90;;;;;;5023830;28;20466;-64
2023/12/03 06:21:09;;;;;;;1.90;1.70;;;21.40;66.10;;;;;;5024264;28;20458;-63
2023/12/03 06:23:37;;;;;;;1.83;1.50;;;21.40;65.80;;;;;;5022514;28;20465;-64
2023/12/03 06:26:04;;;;;;;1.80;1.60;;;21.40;65.90;;;;;;5027010;28;20480;-63
2023/12/03 06:28:30;;;;;;;1.60;1.50;;;21.40;65.80;;;;;;5023676;28;20475;-65
2023/12/03 06:30:57;;;;;;;2.47;1.83;;;21.40;65.80;;;;;;5022825;28;20466;-63
2023/12/03 06:33:24;;;;;;;1.63;1.53;;;21.40;66.30;;;;;;5029082;28;20455;-64
2023/12/03 06:35:51;;;;;;;1.67;1.50;;;21.40;66.00;;;;;;5025271;28;20470;-62
2023/12/03 06:38:18;;;;;;;1.40;1.23;;;21.40;65.90;;;;;;5019596;28;20458;-63
2023/12/03 06:40:46;;;;;;;2.03;1.83;;;21.40;66.10;;;;;;5019237;28;20219;-63
2023/12/03 06:43:13;;;;;;;1.70;1.50;;;21.40;66.00;;;;;;5024002;28;20227;-63
2023/12/03 06:45:40;;;;;;;2.57;1.53;;;21.40;66.20;;;;;;5022199;28;20694;-63
2023/12/03 06:48:07;;;;;;;2.27;1.80;;;21.50;66.40;;;;;;5020611;28;20465;-65
2023/12/03 06:50:33;;;;;;;3.20;1.67;;;21.50;66.40;;;;;;5022489;28;20933;-64
2023/12/03 06:53:00;;;;;;;10.10;1.97;;;21.50;66.60;;;;;;5020489;28;20970;-65
2023/12/03 06:55:27;;;;;;;1.73;1.63;;;21.50;66.70;;;;;;5024651;28;20457;-63
2023/12/03 06:57:55;;;;;;;2.27;1.70;;;21.50;66.60;;;;;;5024441;28;20441;-65
2023/12/03 07:00:23;;;;;;;1.87;1.57;;;21.50;66.60;;;;;;5021473;28;20457;-63
2023/12/03 07:02:50;;;;;;;5.37;1.53;;;21.50;66.90;;;;;;5021078;28;20458;-63
2023/12/03 07:05:17;;;;;;;2.10;1.90;;;21.50;66.90;;;;;;5016787;28;21197;-61
2023/12/03 07:07:44;;;;;;;2.30;2.07;;;21.50;67.00;;;;;;5016655;28;20462;-60
2023/12/03 07:10:11;;;;;;;2.40;2.20;;;21.40;66.70;;;;;;5022165;28;20443;-56
2023/12/03 07:12:37;;;;;;;4.77;2.70;;;21.40;66.00;;;;;;5011880;28;20463;-58
2023/12/03 07:15:07;;;;;;;3.33;2.00;;;21.40;65.80;;;;;;4821172;28;20466;-62
2023/12/03 07:17:33;;;;;;;3.23;2.20;;;21.30;65.10;;;;;;4792237;28;20855;-61
2023/12/03 07:20:00;;;;;;;2.67;2.43;;;21.30;65.30;;;;;;4798466;28;20710;-60
2023/12/03 07:22:27;;;;;;;2.47;2.23;;;21.20;65.70;;;;;;4798829;28;20467;-60
2023/12/03 07:24:54;;;;;;;22.77;2.50;;;21.30;66.00;;;;;;4909312;28;21114;-59
2023/12/03 07:27:21;;;;;;;2.67;2.47;;;21.30;66.00;;;;;;5022164;28;20478;-59
2023/12/03 07:29:50;;;;;;;2.07;1.70;;;21.30;65.90;;;;;;4946892;28;20467;-63
2023/12/03 07:32:18;;;;;;;2.07;1.77;;;21.30;66.00;;;;;;4835913;28;20463;-62
2023/12/03 07:34:45;;;;;;;2.00;1.63;;;21.30;66.60;;;;;;4842359;28;20965;-62
2023/12/03 07:37:12;;;;;;;5.57;1.90;;;21.30;67.10;;;;;;4833959;28;20466;-60
2023/12/03 07:39:40;;;;;;;2.20;2.00;;;21.30;67.60;;;;;;4833955;28;20470;-62
2023/12/03 07:42:07;;;;;;;4.03;2.20;;;21.30;67.30;;;;;;4831965;28;20727;-63
2023/12/03 07:44:34;;;;;;;2.07;1.87;;;21.30;67.40;;;;;;4829146;28;21467;-63
2023/12/03 07:47:02;;;;;;;2.90;2.00;;;21.30;67.40;;;;;;4832879;28;20494;-63
2023/12/03 07:49:30;;;;;;;2.97;1.90;;;21.40;67.50;;;;;;4832197;28;20519;-63
2023/12/03 07:51:57;;;;;;;2.00;1.70;;;21.40;67.30;;;;;;4816877;28;21060;-64
2023/12/03 07:54:24;;;;;;;1.90;1.80;;;21.40;67.50;;;;;;4830777;28;20475;-63
2023/12/03 07:56:51;;;;;;;2.33;2.13;;;21.40;67.60;;;;;;4812727;28;21051;-64
2023/12/03 07:59:17;;;;;;;3.40;2.00;;;21.40;67.60;;;;;;4832978;28;20466;-63
2023/12/03 08:01:44;;;;;;;2.13;1.93;;;21.40;67.80;;;;;;4831341;28;20458;-63
2023/12/03 08:04:11;;;;;;;1.67;1.53;;;21.40;67.80;;;;;;4837193;28;21082;-63
2023/12/03 08:06:39;;;;;;;2.73;1.67;;;21.40;68.00;;;;;;4829374;28;20480;-63
2023/12/03 08:09:07;;;;;;;1.83;1.73;;;21.30;67.90;;;;;;4836784;28;20469;-64
2023/12/03 08:11:35;;;;;;;2.27;1.80;;;21.40;68.00;;;;;;4837286;28;20522;-62
2023/12/03 08:14:02;;;;;;;2.63;1.90;;;21.30;67.90;;;;;;4838744;28;20507;-64
2023/12/03 08:16:29;;;;;;;1.70;1.40;;;21.30;68.00;;;;;;4840359;28;28684;-63
2023/12/03 08:18:56;;;;;;;1.60;1.47;;;21.40;68.10;;;;;;4840087;28;20457;-62
2023/12/03 08:21:22;;;;;;;1.57;1.43;;;21.40;68.10;;;;;;4842204;28;20468;-63
2023/12/03 08:23:51;;;;;;;2.57;1.83;;;21.30;68.10;;;;;;4836702;28;20481;-63
2023/12/03 08:26:18;;;;;;;2.13;1.77;;;21.40;68.20;;;;;;4838753;28;21589;-63
2023/12/03 08:28:45;;;;;;;2.03;1.47;;;21.40;68.10;;;;;;4835900;28;20727;-62
2023/12/03 08:31:11;;;;;;;1.87;1.77;;;21.30;68.00;;;;;;4832956;28;20555;-63
2023/12/03 08:33:39;;;;;;;2.40;2.20;;;21.40;68.10;;;;;;4840988;28;20466;-63
2023/12/03 08:36:06;;;;;;;1.70;1.60;;;21.30;68.00;;;;;;4834703;28;20544;-63
2023/12/03 08:38:33;;;;;;;2.03;1.83;;;21.30;68.00;;;;;;4839542;28;20559;-63
2023/12/03 08:41:01;;;;;;;1.90;1.80;;;21.40;68.10;;;;;;4837657;28;21032;-64
2023/12/03 08:43:28;;;;;;;2.60;1.90;;;21.40;68.10;;;;;;4838494;28;20497;-62
2023/12/03 08:45:55;;;;;;;2.57;1.70;;;21.40;68.00;;;;;;4839066;28;21229;-62
2023/12/03 08:48:22;;;;;;;2.17;1.97;;;21.30;67.90;;;;;;4837992;28;21051;-65
2023/12/03 08:50:49;;;;;;;1.60;1.47;;;21.30;68.00;;;;;;4842652;28;20565;-62
2023/12/03 08:53:16;;;;;;;1.70;1.60;;;21.30;68.10;;;;;;4839394;28;20462;-63
2023/12/03 08:55:43;;;;;;;1.80;1.70;;;21.30;67.90;;;;;;4843674;28;20462;-63
2023/12/03 08:58:11;;;;;;;2.30;2.10;;;21.30;68.00;;;;;;4850192;28;20465;-60
2023/12/03 09:00:38;;;;;;;3.20;2.10;;;21.30;66.90;;;;;;4836547;28;20543;-59
2023/12/03 09:03:05;;;;;;;2.37;2.17;;;21.30;66.60;;;;;;4832143;28;20458;-64
2023/12/03 09:05:32;;;;;;;2.47;1.80;;;21.30;66.50;;;;;;4847697;28;21079;-63
2023/12/03 09:07:59;;;;;;;2.30;2.10;;;21.30;66.40;;;;;;4843561;28;20461;-65
2023/12/03 09:10:27;;;;;;;2.13;1.93;;;21.30;66.20;;;;;;4837961;28;20470;-64
2023/12/03 09:12:54;;;;;;;2.10;1.90;;;21.30;66.20;;;;;;4837371;28;21239;-64
2023/12/03 09:15:22;;;;;;;2.00;1.80;;;21.30;66.00;;;;;;4875498;28;20972;-61
2023/12/03 09:17:48;;;;;;;1.70;1.60;;;21.30;66.30;;;;;;5015628;28;20467;-63
2023/12/03 09:20:15;;;;;;;3.37;1.67;;;21.30;66.30;;;;;;5015061;28;21013;-58
2023/12/03 09:22:42;;;;;;;2.27;1.60;;;21.40;66.50;;;;;;5024325;28;20466;-57
2023/12/03 09:25:09;;;;;;;1.67;1.50;;;21.40;66.30;;;;;;5023742;28;20462;-57
2023/12/03 09:27:35;;;;;;;2.07;1.87;;;21.40;66.50;;;;;;5021210;28;20490;-57
2023/12/03 09:30:04;;;;;;;2.63;1.57;;;21.40;66.40;;;;;;5024386;28;20523;-60
2023/12/03 09:32:32;;;;;;;2.27;2.10;;;21.40;66.30;;;;;;5025830;28;20551;-57
2023/12/03 09:34:59;;;;;;;1.50;1.40;;;21.40;66.20;;;;;;5024405;28;20454;-60
2023/12/03 09:37:26;;;;;;;2.10;1.33;;;21.40;66.20;;;;;;5019719;28;20852;-60
2023/12/03 09:39:52;;;;;;;2.17;1.97;;;21.40;66.40;;;;;;5024046;28;20449;-58
2023/12/03 09:42:22;;;;;;;1.90;1.63;;;21.40;66.30;;;;;;5021265;28;20465;-54
2023/12/03 09:44:54;;;;;;;1.97;1.80;;;21.40;66.40;;;;;;5023478;28;20464;-58
2023/12/03 09:47:24;;;;;;;1.90;1.80;;;21.40;66.30;;;;;;5019665;28;20478;-56
2023/12/03 09:49:55;;;;;;;1.97;1.80;;;21.40;66.10;;;;;;5023992;28;21070;-57
2023/12/03 09:52:25;;;;;;;2.40;2.17;;;21.40;66.20;;;;;;5025701;28;21468;-58
2023/12/03 09:54:55;;;;;;;1.73;1.63;;;21.40;66.00;;;;;;5028323;28;20487;-57
2023/12/03 09:57:24;;;;;;;2.00;1.57;;;21.40;66.00;;;;;;5023948;28;20458;-61
2023/12/03 09:59:57;;;;;;;2.77;2.20;;;21.40;66.20;;;;;;5022093;28;20479;-56
2023/12/03 10:02:28;;;;;;;2.47;2.23;;;21.40;66.10;;;;;;5024591;28;20842;-55
2023/12/03 10:04:57;;;;;;;2.13;1.90;;;21.40;66.00;;;;;;5029439;28;20552;-61
2023/12/03 10:07:27;;;;;;;1.80;1.60;;;21.40;66.00;;;;;;5023462;28;20902;-58
2023/12/03 10:09:55;;;;;;;3.10;2.47;;;21.40;66.00;;;;;;5024742;28;20459;-54
2023/12/03 10:12:25;;;;;;;2.20;2.00;;;21.30;66.00;;;;;;5031690;28;20469;-58
2023/12/03 10:14:52;;;;;;;2.33;1.83;;;21.40;66.00;;;;;;5023587;28;20465;-59
2023/12/03 10:17:20;;;;;;;3.10;1.80;;;21.40;66.10;;;;;;5023580;28;20473;-61
2023/12/03 10:19:47;;;;;;;3.00;2.60;;;21.40;66.20;;;;;;5027210;28;20457;-55
2023/12/03 10:22:15;;;;;;;2.50;2.30;;;21.40;66.00;;;;;;5020968;28;20454;-59
2023/12/03 10:24:48;;;;;;;2.93;2.63;;;21.40;66.20;;;;;;5021203;28;20773;-58
2023/12/03 10:27:15;;;;;;;2.63;2.43;;;21.30;65.90;;;;;;5022641;28;20562;-55
2023/12/03 10:29:42;;;;;;;4.23;2.40;;;21.40;66.00;;;;;;5020935;28;21215;-58
2023/12/03 10:32:09;;;;;;;4.10;3.50;;;21.40;66.00;;;;;;5024929;28;20465;-58
2023/12/03 10:34:36;;;;;;;3.80;3.35;;;21.30;64.20;;;;;;5032823;28;20465;-60
2023/12/03 10:37:02;;;;;;;4.80;3.55;;;21.30;63.50;;;;;;5026058;28;20196;-61
2023/12/03 10:39:32;;;;;;;3.83;3.20;;;21.30;63.70;;;;;;5025465;28;20193;-56
2023/12/03 10:42:00;;;;;;;3.47;3.17;;;21.20;63.90;;;;;;5021505;28;20505;-60
2023/12/03 10:44:28;;;;;;;5.63;3.67;;;21.20;64.10;;;;;;5021592;28;20867;-61
2023/12/03 10:46:57;;;;;;;4.30;3.20;;;21.20;64.10;;;;;;5022757;28;21010;-59
2023/12/03 10:49:24;;;;;;;4.93;4.53;;;21.20;64.10;;;;;;5020251;28;20462;-60
2023/12/03 10:51:55;;;;;;;6.30;3.60;;;21.20;63.60;;;;;;5024562;28;20473;-60
2023/12/03 10:54:21;;;;;;;7.93;4.03;;;21.10;63.00;;;;;;5025905;28;20456;-56
2023/12/03 10:56:53;;;;;;;6.73;4.07;;;21.10;62.80;;;;;;5027165;28;20473;-58
2023/12/03 10:59:23;;;;;;;4.75;4.25;;;21.10;62.50;;;;;;5020840;28;20469;-67
2023/12/03 11:01:55;;;;;;;4.57;3.38;;;21.10;63.60;;;;;;5025367;28;20192;-57
2023/12/03 11:04:41;;;;;;;6.87;3.50;;;21.10;64.60;;;;;;5031311;28;20205;-67
2023/12/03 11:07:08;;;;;;;5.30;4.00;;;21.10;65.60;;;;;;5023153;28;20565;-67
2023/12/03 11:09:37;;;;;;;3.90;3.20;;;21.20;66.60;;;;;;5022735;28;20805;-65
2023/12/03 11:12:08;;;;;;;7.72;3.10;;;21.20;66.90;;;;;;5022430;28;20517;-65
2023/12/03 11:14:36;;;;;;;4.13;3.33;;;21.20;67.50;;;;;;5020816;28;20206;-65
2023/12/03 11:17:11;;;;;;;4.20;3.80;;;21.30;67.90;;;;;;5019757;28;20206;-64
2023/12/03 11:19:42;;;;;;;5.10;3.30;;;21.30;68.20;;;;;;5021100;28;20854;-64
2023/12/03 11:22:21;;;;;;;3.55;2.85;;;21.30;68.40;;;;;;5018172;28;20469;-64
2023/12/03 11:24:54;;;;;;;5.63;3.73;;;21.40;68.70;;;;;;5022673;28;20203;-66
2023/12/03 11:27:26;;;;;;;6.27;3.10;;;21.40;68.60;;;;;;5020089;28;20556;-64
2023/12/03 11:29:53;;;;;;;5.23;3.70;;;21.40;69.10;;;;;;5013920;28;20465;-64
2023/12/03 11:32:24;;;;;;;4.73;3.63;;;21.50;69.50;;;;;;5021004;28;20462;-65
2023/12/03 11:34:56;;;;;;;6.33;3.77;;;21.50;69.50;;;;;;5021777;28;20465;-67
2023/12/03 11:37:26;;;;;;;3.33;3.03;;;21.50;69.70;;;;;;5022048;28;20466;-67
2023/12/03 11:39:56;;;;;;;3.60;3.30;;;21.50;69.80;;;;;;5021719;28;20473;-65
2023/12/03 11:42:25;;;;;;;3.77;3.40;;;21.50;69.90;;;;;;5018882;28;20457;-64
2023/12/03 11:45:16;;;;;;;3.40;3.10;;;21.60;70.20;;;;;;5014172;28;21057;-71
2023/12/03 11:47:45;;;;;;;3.53;3.17;;;21.60;71.10;;;;;;5023632;28;20486;-68
2023/12/03 11:50:14;;;;;;;4.23;3.10;;;21.60;70.40;;;;;;5020264;28;20496;-74
2023/12/03 11:52:42;;;;;;;4.80;3.23;;;21.60;70.10;;;;;;5018610;28;20950;-66
2023/12/03 11:55:14;;;;;;;6.73;3.53;;;21.60;70.10;;;;;;5025164;28;20450;-70
2023/12/03 11:57:42;;;;;;;5.03;2.73;;;21.70;70.40;;;;;;5023694;28;20529;-65
2023/12/03 12:00:11;;;;;;;4.47;2.90;;;21.60;70.30;;;;;;5017015;28;20466;-64
2023/12/03 12:02:37;;;;;;;3.37;2.77;;;21.70;70.50;;;;;;5024096;28;20861;-66
2023/12/03 12:05:05;;;;;;;5.00;3.57;;;21.70;70.40;;;;;;5022289;28;20477;-66
2023/12/03 12:07:31;;;;;;;4.70;3.07;;;21.70;70.30;;;;;;5019595;28;20488;-64
2023/12/03 12:09:58;;;;;;;3.80;3.30;;;21.70;70.20;;;;;;5025449;28;20446;-64
2023/12/03 12:12:25;;;;;;;5.53;3.40;;;21.70;69.30;;;;;;5026262;28;20466;-64
2023/12/03 12:14:53;;;;;;;5.97;3.90;;;21.70;68.90;;;;;;5016663;28;20454;-64
2023/12/03 12:17:21;;;;;;;5.13;3.70;;;21.70;68.90;;;;;;5021143;28;20465;-67
2023/12/03 12:19:48;;;;;;;4.10;2.90;;;21.70;68.80;;;;;;5024024;28;20468;-66
2023/12/03 12:22:15;;;;;;;4.60;3.07;;;21.70;68.90;;;;;;5020748;28;20471;-66
2023/12/03 12:24:42;;;;;;;3.77;3.40;;;21.70;69.50;;;;;;5021102;28;20453;-65
2023/12/03 12:27:09;;;;;;;6.07;3.77;;;21.70;69.90;;;;;;5016649;28;20477;-67
2023/12/03 12:29:36;;;;;;;3.80;3.13;;;21.80;70.20;;;;;;5019002;28;20466;-68
2023/12/03 12:32:05;;;;;;;8.73;3.67;;;21.80;70.30;;;;;;5021521;28;20470;-67
2023/12/03 12:34:34;;;;;;;5.20;2.50;;;21.80;70.30;;;;;;5028699;28;20810;-66
2023/12/03 12:37:05;;;;;;;4.80;3.67;;;21.90;70.50;;;;;;5028207;28;21085;-69
2023/12/03 12:39:32;;;;;;;4.13;2.70;;;21.90;70.40;;;;;;5029133;28;20446;-68
2023/12/03 12:41:59;;;;;;;7.07;3.33;;;21.90;70.40;;;;;;5023222;28;20464;-65
2023/12/03 12:44:40;;;;;;;6.13;3.70;;;21.90;70.30;;;;;;5025452;28;20473;-66
2023/12/03 12:47:08;;;;;;;6.30;4.00;;;21.90;70.00;;;;;;5026977;28;20476;-69
2023/12/03 12:49:35;;;;;;;6.27;3.47;;;21.90;70.00;;;;;;5028864;28;20469;-66